sensor_id;sensor_type;location;lat;lon;timestamp;temperature;humidity
8475;DHT22;4274;52.012;8.448;2023-11-18T00:00:01;3.60;99.90
8475;DHT22;4274;52.012;8.448;2023-11-18T00:02:26;3.60;99.90
8475;DHT22;4274;52.012;8.448;2023-11-18T00:04:52;3.60;99.90
8475;DHT22;4274;52.012;8.448;2023-11-18T00:07:18;3.60;99.90
8475;DHT22;4274;52.012;8.448;2023-11-18T00:09:43;3.60;99.90
8475;DHT22;4274;52.012;8.448;2023-11-18T00:12:12;3.60;99.90
8475;DHT22;4274;52.012;8.448;2023-11-18T00:14:37;3.60;99.90
8475;DHT22;4274;52.012;8.448;2023-11-18T00:17:03;3.60;99.90
8475;DHT22;4274;52.012;8.448;2023-11-18T00:19:29;3.60;99.90
8475;DHT22;4274;52.012;8.448;2023-11-18T00:21:55;3.50;99.90
8475;DHT22;4274;52.012;8.448;2023-11-18T00:24:21;3.50;99.90
8475;DHT22;4274;52.012;8.448;2023-11-18T00:26:46;3.50;99.90
8475;DHT22;4274;52.012;8.448;2023-11-18T00:29:12;3.50;99.90
8475;DHT22;4274;52.012;8.448;2023-11-18T00:31:38;3.50;99.90
8475;DHT22;4274;52.012;8.448;2023-11-18T00:34:03;3.50;99.90
8475;DHT22;4274;52.012;8.448;2023-11-18T00:36:29;3.50;99.90
8475;DHT22;4274;52.012;8.448;2023-11-18T00:38:55;3.60;99.90
8475;DHT22;4274;52.012;8.448;2023-11-18T00:41:20;3.60;99.90
8475;DHT22;4274;52.012;8.448;2023-11-18T00:43:46;3.60;99.90
8475;DHT22;4274;52.012;8.448;2023-11-18T00:46:12;3.60;99.90
8475;DHT22;4274;52.012;8.448;2023-11-18T00:48:38;3.70;99.90
8475;DHT22;4274;52.012;8.448;2023-11-18T00:51:05;3.70;99.90
8475;DHT22;4274;52.012;8.448;2023-11-18T00:53:31;3.70;99.90
8475;DHT22;4274;52.012;8.448;2023-11-18T00:55:56;3.70;99.90
8475;DHT22;4274;52.012;8.448;2023-11-18T00:58:23;3.80;99.90
8475;DHT22;4274;52.012;8.448;2023-11-18T01:00:49;3.70;99.90
8475;DHT22;4274;52.012;8.448;2023-11-18T01:03:14;3.80;99.90
8475;DHT22;4274;52.012;8.448;2023-11-18T01:05:40;3.80;99.90
8475;DHT22;4274;52.012;8.448;2023-11-18T01:08:06;3.80;99.90
8475;DHT22;4274;52.012;8.448;2023-11-18T01:10:31;3.80;99.90
8475;DHT22;4274;52.012;8.448;2023-11-18T01:12:57;3.80;99.90
8475;DHT22;4274;52.012;8.448;2023-11-18T01:15:23;3.80;99.90
8475;DHT22;4274;52.012;8.448;2023-11-18T01:17:49;3.80;99.90
8475;DHT22;4274;52.012;8.448;2023-11-18T01:20:15;3.80;99.90
8475;DHT22;4274;52.012;8.448;2023-11-18T01:22:46;3.90;99.90
8475;DHT22;4274;52.012;8.448;2023-11-18T01:25:12;3.90;99.90
8475;DHT22;4274;52.012;8.448;2023-11-18T01:27:38;3.90;99.90
8475;DHT22;4274;52.012;8.448;2023-11-18T01:30:05;3.90;99.90
8475;DHT22;4274;52.012;8.448;2023-11-18T01:32:31;3.90;99.90
8475;DHT22;4274;52.012;8.448;2023-11-18T01:34:57;3.90;99.90
8475;DHT22;4274;52.012;8.448;2023-11-18T01:37:22;3.90;99.90
8475;DHT22;4274;52.012;8.448;2023-11-18T01:39:49;3.90;99.90
8475;DHT22;4274;52.012;8.448;2023-11-18T01:42:14;3.90;99.90
8475;DHT22;4274;52.012;8.448;2023-11-18T01:44:40;3.90;99.90
8475;DHT22;4274;52.012;8.448;2023-11-18T01:47:07;3.90;99.90
8475;DHT22;4274;52.012;8.448;2023-11-18T01:49:37;3.90;99.90
8475;DHT22;4274;52.012;8.448;2023-11-18T01:52:05;3.90;99.90
8475;DHT22;4274;52.012;8.448;2023-11-18T01:54:34;3.90;99.90
8475;DHT22;4274;52.012;8.448;2023-11-18T01:57:00;3.90;99.90
8475;DHT22;4274;52.012;8.448;2023-11-18T01:59:31;3.90;99.90
8475;DHT22;4274;52.012;8.448;2023-11-18T02:01:59;3.80;99.90
8475;DHT22;4274;52.012;8.448;2023-11-18T02:04:25;3.90;99.90
8475;DHT22;4274;52.012;8.448;2023-11-18T02:06:52;3.80;99.90
8475;DHT22;4274;52.012;8.448;2023-11-18T02:09:19;3.80;99.90
8475;DHT22;4274;52.012;8.448;2023-11-18T02:12:21;3.80;99.90
8475;DHT22;4274;52.012;8.448;2023-11-18T02:14:50;3.80;99.90
8475;DHT22;4274;52.012;8.448;2023-11-18T02:17:20;3.80;99.90
8475;DHT22;4274;52.012;8.448;2023-11-18T02:19:50;3.80;99.90
8475;DHT22;4274;52.012;8.448;2023-11-18T02:22:16;3.70;99.90
8475;DHT22;4274;52.012;8.448;2023-11-18T02:24:42;3.60;99.90
8475;DHT22;4274;52.012;8.448;2023-11-18T02:27:08;3.60;99.90
8475;DHT22;4274;52.012;8.448;2023-11-18T02:29:41;3.60;99.90
8475;DHT22;4274;52.012;8.448;2023-11-18T02:35:32;3.60;99.90
8475;DHT22;4274;52.012;8.448;2023-11-18T02:38:03;3.60;99.90
8475;DHT22;4274;52.012;8.448;2023-11-18T02:40:35;3.50;99.90
8475;DHT22;4274;52.012;8.448;2023-11-18T02:43:02;3.60;99.90
8475;DHT22;4274;52.012;8.448;2023-11-18T02:45:31;3.50;99.90
8475;DHT22;4274;52.012;8.448;2023-11-18T02:47:57;3.50;99.90
8475;DHT22;4274;52.012;8.448;2023-11-18T02:50:26;3.50;99.90
8475;DHT22;4274;52.012;8.448;2023-11-18T02:52:53;3.50;99.90
8475;DHT22;4274;52.012;8.448;2023-11-18T02:55:19;3.40;99.90
8475;DHT22;4274;52.012;8.448;2023-11-18T02:57:48;3.40;99.90
8475;DHT22;4274;52.012;8.448;2023-11-18T03:00:15;3.30;99.90
8475;DHT22;4274;52.012;8.448;2023-11-18T03:02:50;3.30;99.90
8475;DHT22;4274;52.012;8.448;2023-11-18T03:05:17;3.20;99.90
8475;DHT22;4274;52.012;8.448;2023-11-18T03:07:46;3.10;99.90
8475;DHT22;4274;52.012;8.448;2023-11-18T03:10:18;3.10;99.90
8475;DHT22;4274;52.012;8.448;2023-11-18T03:12:50;3.10;99.90
8475;DHT22;4274;52.012;8.448;2023-11-18T03:15:16;3.10;99.90
8475;DHT22;4274;52.012;8.448;2023-11-18T03:17:46;3.10;99.90
8475;DHT22;4274;52.012;8.448;2023-11-18T03:20:14;3.00;99.90
8475;DHT22;4274;52.012;8.448;2023-11-18T03:22:45;3.00;99.90
8475;DHT22;4274;52.012;8.448;2023-11-18T03:25:14;3.00;99.90
8475;DHT22;4274;52.012;8.448;2023-11-18T03:27:40;3.00;99.90
8475;DHT22;4274;52.012;8.448;2023-11-18T03:30:07;3.00;99.90
8475;DHT22;4274;52.012;8.448;2023-11-18T03:32:34;3.00;99.90
8475;DHT22;4274;52.012;8.448;2023-11-18T03:35:02;3.00;99.90
8475;DHT22;4274;52.012;8.448;2023-11-18T03:37:27;3.00;99.90
8475;DHT22;4274;52.012;8.448;2023-11-18T03:39:53;2.90;99.90
8475;DHT22;4274;52.012;8.448;2023-11-18T03:42:19;2.90;99.90
8475;DHT22;4274;52.012;8.448;2023-11-18T03:44:44;2.90;99.90
8475;DHT22;4274;52.012;8.448;2023-11-18T03:47:14;2.80;99.90
8475;DHT22;4274;52.012;8.448;2023-11-18T03:49:40;2.80;99.90
8475;DHT22;4274;52.012;8.448;2023-11-18T03:52:06;2.80;99.90
8475;DHT22;4274;52.012;8.448;2023-11-18T03:54:31;2.70;99.90
8475;DHT22;4274;52.012;8.448;2023-11-18T03:56:57;2.70;99.90
8475;DHT22;4274;52.012;8.448;2023-11-18T03:59:22;2.60;99.90
8475;DHT22;4274;52.012;8.448;2023-11-18T04:01:48;2.60;99.90
8475;DHT22;4274;52.012;8.448;2023-11-18T04:04:16;2.50;99.90
8475;DHT22;4274;52.012;8.448;2023-11-18T04:06:42;2.50;99.90
8475;DHT22;4274;52.012;8.448;2023-11-18T04:09:07;2.40;99.90
8475;DHT22;4274;52.012;8.448;2023-11-18T04:11:35;2.40;99.90
8475;DHT22;4274;52.012;8.448;2023-11-18T04:14:00;2.40;99.90
8475;DHT22;4274;52.012;8.448;2023-11-18T04:16:26;2.40;99.90
8475;DHT22;4274;52.012;8.448;2023-11-18T04:18:51;2.30;99.90
8475;DHT22;4274;52.012;8.448;2023-11-18T04:21:17;2.30;99.90
8475;DHT22;4274;52.012;8.448;2023-11-18T04:23:43;2.20;99.90
8475;DHT22;4274;52.012;8.448;2023-11-18T04:26:12;2.20;99.90
8475;DHT22;4274;52.012;8.448;2023-11-18T04:28:38;2.20;99.90
8475;DHT22;4274;52.012;8.448;2023-11-18T04:31:04;2.10;99.90
8475;DHT22;4274;52.012;8.448;2023-11-18T04:33:30;2.10;99.90
8475;DHT22;4274;52.012;8.448;2023-11-18T04:35:56;2.10;99.90
8475;DHT22;4274;52.012;8.448;2023-11-18T04:38:26;2.10;99.90
8475;DHT22;4274;52.012;8.448;2023-11-18T04:40:52;2.10;99.90
8475;DHT22;4274;52.012;8.448;2023-11-18T04:43:19;2.10;99.90
8475;DHT22;4274;52.012;8.448;2023-11-18T04:45:45;2.10;99.90
8475;DHT22;4274;52.012;8.448;2023-11-18T04:48:11;2.10;99.90
8475;DHT22;4274;52.012;8.448;2023-11-18T04:50:39;2.10;99.90
8475;DHT22;4274;52.012;8.448;2023-11-18T04:53:05;2.10;99.90
8475;DHT22;4274;52.012;8.448;2023-11-18T04:55:34;2.10;99.90
8475;DHT22;4274;52.012;8.448;2023-11-18T04:58:00;2.00;99.90
8475;DHT22;4274;52.012;8.448;2023-11-18T05:00:26;2.00;99.90
8475;DHT22;4274;52.012;8.448;2023-11-18T05:02:53;2.00;99.90
8475;DHT22;4274;52.012;8.448;2023-11-18T05:05:19;2.00;99.90
8475;DHT22;4274;52.012;8.448;2023-11-18T05:07:45;2.00;99.90
8475;DHT22;4274;52.012;8.448;2023-11-18T05:10:10;1.90;99.90
8475;DHT22;4274;52.012;8.448;2023-11-18T05:12:37;1.90;99.90
8475;DHT22;4274;52.012;8.448;2023-11-18T05:15:04;1.90;99.90
8475;DHT22;4274;52.012;8.448;2023-11-18T05:17:30;1.90;99.90
8475;DHT22;4274;52.012;8.448;2023-11-18T05:19:55;1.80;99.90
8475;DHT22;4274;52.012;8.448;2023-11-18T05:22:21;1.70;99.90
8475;DHT22;4274;52.012;8.448;2023-11-18T05:24:47;1.70;99.90
8475;DHT22;4274;52.012;8.448;2023-11-18T05:27:14;1.60;99.90
8475;DHT22;4274;52.012;8.448;2023-11-18T05:29:40;1.70;99.90
8475;DHT22;4274;52.012;8.448;2023-11-18T05:32:10;1.70;99.90
8475;DHT22;4274;52.012;8.448;2023-11-18T05:34:36;1.70;99.90
8475;DHT22;4274;52.012;8.448;2023-11-18T05:37:01;1.70;99.90
8475;DHT22;4274;52.012;8.448;2023-11-18T05:39:27;1.70;99.90
8475;DHT22;4274;52.012;8.448;2023-11-18T05:41:59;1.80;99.90
8475;DHT22;4274;52.012;8.448;2023-11-18T05:44:25;1.70;99.90
8475;DHT22;4274;52.012;8.448;2023-11-18T05:46:59;1.70;99.90
8475;DHT22;4274;52.012;8.448;2023-11-18T05:49:25;1.70;99.90
8475;DHT22;4274;52.012;8.448;2023-11-18T05:51:50;1.70;99.90
8475;DHT22;4274;52.012;8.448;2023-11-18T05:54:17;1.60;99.90
8475;DHT22;4274;52.012;8.448;2023-11-18T05:56:42;1.60;99.90
8475;DHT22;4274;52.012;8.448;2023-11-18T05:59:08;1.60;99.90
8475;DHT22;4274;52.012;8.448;2023-11-18T06:01:34;1.60;99.90
8475;DHT22;4274;52.012;8.448;2023-11-18T06:04:00;1.70;99.90
8475;DHT22;4274;52.012;8.448;2023-11-18T06:06:26;1.70;99.90
8475;DHT22;4274;52.012;8.448;2023-11-18T06:08:52;1.70;99.90
8475;DHT22;4274;52.012;8.448;2023-11-18T06:11:19;1.70;99.90
8475;DHT22;4274;52.012;8.448;2023-11-18T06:13:47;1.80;99.90
8475;DHT22;4274;52.012;8.448;2023-11-18T06:16:18;1.70;99.90
8475;DHT22;4274;52.012;8.448;2023-11-18T06:18:47;1.80;99.90
8475;DHT22;4274;52.012;8.448;2023-11-18T06:21:18;1.90;99.90
8475;DHT22;4274;52.012;8.448;2023-11-18T06:23:44;1.90;99.90
8475;DHT22;4274;52.012;8.448;2023-11-18T06:26:13;1.90;99.90
8475;DHT22;4274;52.012;8.448;2023-11-18T06:28:44;2.00;99.90
8475;DHT22;4274;52.012;8.448;2023-11-18T06:31:10;2.00;99.90
8475;DHT22;4274;52.012;8.448;2023-11-18T06:33:42;2.00;99.90
8475;DHT22;4274;52.012;8.448;2023-11-18T06:36:09;2.00;99.90
8475;DHT22;4274;52.012;8.448;2023-11-18T06:38:36;2.10;99.90
8475;DHT22;4274;52.012;8.448;2023-11-18T06:41:03;2.10;99.90
8475;DHT22;4274;52.012;8.448;2023-11-18T06:43:30;2.20;99.90
8475;DHT22;4274;52.012;8.448;2023-11-18T06:46:11;2.30;99.90
8475;DHT22;4274;52.012;8.448;2023-11-18T06:48:39;2.40;99.90
8475;DHT22;4274;52.012;8.448;2023-11-18T06:51:06;2.50;99.90
8475;DHT22;4274;52.012;8.448;2023-11-18T06:53:34;2.50;99.90
8475;DHT22;4274;52.012;8.448;2023-11-18T06:56:00;2.60;99.90
8475;DHT22;4274;52.012;8.448;2023-11-18T06:58:25;2.60;99.90
8475;DHT22;4274;52.012;8.448;2023-11-18T07:00:51;2.70;99.90
8475;DHT22;4274;52.012;8.448;2023-11-18T07:03:16;2.70;99.90
8475;DHT22;4274;52.012;8.448;2023-11-18T07:05:42;2.80;99.90
8475;DHT22;4274;52.012;8.448;2023-11-18T07:08:09;2.80;99.90
8475;DHT22;4274;52.012;8.448;2023-11-18T07:10:35;2.80;99.90
8475;DHT22;4274;52.012;8.448;2023-11-18T07:13:03;2.80;99.90
8475;DHT22;4274;52.012;8.448;2023-11-18T07:15:29;2.80;99.90
8475;DHT22;4274;52.012;8.448;2023-11-18T07:17:54;2.90;99.90
8475;DHT22;4274;52.012;8.448;2023-11-18T07:20:20;2.90;99.90
8475;DHT22;4274;52.012;8.448;2023-11-18T07:22:45;2.90;99.90
8475;DHT22;4274;52.012;8.448;2023-11-18T07:25:11;2.90;99.90
8475;DHT22;4274;52.012;8.448;2023-11-18T07:27:37;3.00;99.90
8475;DHT22;4274;52.012;8.448;2023-11-18T07:30:02;3.00;99.90
8475;DHT22;4274;52.012;8.448;2023-11-18T07:32:31;3.10;99.90
8475;DHT22;4274;52.012;8.448;2023-11-18T07:34:58;3.10;99.90
8475;DHT22;4274;52.012;8.448;2023-11-18T07:37:23;3.10;99.90
8475;DHT22;4274;52.012;8.448;2023-11-18T07:39:49;3.10;99.90
8475;DHT22;4274;52.012;8.448;2023-11-18T07:42:14;3.20;99.90
8475;DHT22;4274;52.012;8.448;2023-11-18T07:44:43;3.20;99.90
8475;DHT22;4274;52.012;8.448;2023-11-18T07:47:09;3.20;99.90
8475;DHT22;4274;52.012;8.448;2023-11-18T07:49:35;3.30;99.90
8475;DHT22;4274;52.012;8.448;2023-11-18T07:52:02;3.30;99.90
8475;DHT22;4274;52.012;8.448;2023-11-18T07:54:27;3.30;99.90
8475;DHT22;4274;52.012;8.448;2023-11-18T07:56:53;3.50;99.90
8475;DHT22;4274;52.012;8.448;2023-11-18T07:59:19;3.60;99.90
8475;DHT22;4274;52.012;8.448;2023-11-18T08:01:45;3.90;99.90
8475;DHT22;4274;52.012;8.448;2023-11-18T08:04:12;4.20;99.90
8475;DHT22;4274;52.012;8.448;2023-11-18T08:06:39;4.40;99.90
8475;DHT22;4274;52.012;8.448;2023-11-18T08:09:05;4.50;99.90
8475;DHT22;4274;52.012;8.448;2023-11-18T08:11:36;4.60;99.90
8475;DHT22;4274;52.012;8.448;2023-11-18T08:14:02;4.60;99.90
8475;DHT22;4274;52.012;8.448;2023-11-18T08:16:28;4.60;99.90
8475;DHT22;4274;52.012;8.448;2023-11-18T08:18:54;4.60;99.90
8475;DHT22;4274;52.012;8.448;2023-11-18T08:21:21;4.60;99.90
8475;DHT22;4274;52.012;8.448;2023-11-18T08:23:47;4.60;99.90
8475;DHT22;4274;52.012;8.448;2023-11-18T08:26:13;4.70;99.90
8475;DHT22;4274;52.012;8.448;2023-11-18T08:28:39;4.80;99.90
8475;DHT22;4274;52.012;8.448;2023-11-18T08:31:06;5.00;99.90
8475;DHT22;4274;52.012;8.448;2023-11-18T08:33:32;5.20;99.90
8475;DHT22;4274;52.012;8.448;2023-11-18T08:35:58;5.40;99.90
8475;DHT22;4274;52.012;8.448;2023-11-18T08:38:26;5.50;99.90
8475;DHT22;4274;52.012;8.448;2023-11-18T08:40:53;5.50;99.90
8475;DHT22;4274;52.012;8.448;2023-11-18T08:43:20;5.50;99.90
8475;DHT22;4274;52.012;8.448;2023-11-18T08:45:46;5.50;99.90
8475;DHT22;4274;52.012;8.448;2023-11-18T08:48:13;5.50;99.90
8475;DHT22;4274;52.012;8.448;2023-11-18T08:50:38;5.60;99.90
8475;DHT22;4274;52.012;8.448;2023-11-18T08:53:08;5.70;99.90
8475;DHT22;4274;52.012;8.448;2023-11-18T08:55:35;5.70;99.90
8475;DHT22;4274;52.012;8.448;2023-11-18T08:58:08;6.10;99.90
8475;DHT22;4274;52.012;8.448;2023-11-18T09:00:43;6.30;99.90
8475;DHT22;4274;52.012;8.448;2023-11-18T09:03:14;6.60;99.90
8475;DHT22;4274;52.012;8.448;2023-11-18T09:05:50;6.80;99.90
8475;DHT22;4274;52.012;8.448;2023-11-18T09:08:38;7.20;99.90
8475;DHT22;4274;52.012;8.448;2023-11-18T09:11:06;7.50;99.90
8475;DHT22;4274;52.012;8.448;2023-11-18T09:13:32;7.50;99.90
8475;DHT22;4274;52.012;8.448;2023-11-18T09:16:01;7.60;99.90
8475;DHT22;4274;52.012;8.448;2023-11-18T09:18:29;7.70;99.90
8475;DHT22;4274;52.012;8.448;2023-11-18T09:20:56;7.70;99.90
8475;DHT22;4274;52.012;8.448;2023-11-18T09:23:25;7.70;99.90
8475;DHT22;4274;52.012;8.448;2023-11-18T09:25:51;7.90;99.90
8475;DHT22;4274;52.012;8.448;2023-11-18T09:28:24;8.00;99.90
8475;DHT22;4274;52.012;8.448;2023-11-18T09:30:51;7.90;99.90
8475;DHT22;4274;52.012;8.448;2023-11-18T09:33:23;7.70;99.90
8475;DHT22;4274;52.012;8.448;2023-11-18T09:35:57;7.40;99.90
8475;DHT22;4274;52.012;8.448;2023-11-18T09:38:34;7.20;99.90
8475;DHT22;4274;52.012;8.448;2023-11-18T09:41:02;7.10;99.90
8475;DHT22;4274;52.012;8.448;2023-11-18T09:43:32;6.90;99.90
8475;DHT22;4274;52.012;8.448;2023-11-18T09:46:04;6.80;99.90
8475;DHT22;4274;52.012;8.448;2023-11-18T09:48:48;6.70;99.90
8475;DHT22;4274;52.012;8.448;2023-11-18T09:51:26;6.60;99.90
8475;DHT22;4274;52.012;8.448;2023-11-18T09:53:58;6.50;99.90
8475;DHT22;4274;52.012;8.448;2023-11-18T09:59:32;6.40;99.90
8475;DHT22;4274;52.012;8.448;2023-11-18T10:02:03;6.40;99.90
8475;DHT22;4274;52.012;8.448;2023-11-18T10:04:32;6.40;99.90
8475;DHT22;4274;52.012;8.448;2023-11-18T10:07:01;6.50;99.90
8475;DHT22;4274;52.012;8.448;2023-11-18T10:09:27;6.40;99.90
8475;DHT22;4274;52.012;8.448;2023-11-18T10:11:54;6.40;99.90
8475;DHT22;4274;52.012;8.448;2023-11-18T10:14:26;6.40;99.90
8475;DHT22;4274;52.012;8.448;2023-11-18T10:16:52;6.30;99.90
8475;DHT22;4274;52.012;8.448;2023-11-18T10:19:19;6.30;99.90
8475;DHT22;4274;52.012;8.448;2023-11-18T10:21:45;6.30;99.90
8475;DHT22;4274;52.012;8.448;2023-11-18T10:24:14;6.30;99.90
8475;DHT22;4274;52.012;8.448;2023-11-18T10:27:00;6.40;99.90
8475;DHT22;4274;52.012;8.448;2023-11-18T10:29:26;6.40;99.90
8475;DHT22;4274;52.012;8.448;2023-11-18T10:32:06;6.50;99.90
8475;DHT22;4274;52.012;8.448;2023-11-18T10:34:34;6.60;99.90
8475;DHT22;4274;52.012;8.448;2023-11-18T10:37:01;6.80;99.90
8475;DHT22;4274;52.012;8.448;2023-11-18T10:39:31;6.90;99.90
8475;DHT22;4274;52.012;8.448;2023-11-18T10:42:01;7.00;99.90
8475;DHT22;4274;52.012;8.448;2023-11-18T10:44:27;7.20;99.90
8475;DHT22;4274;52.012;8.448;2023-11-18T10:46:55;7.30;99.90
8475;DHT22;4274;52.012;8.448;2023-11-18T10:49:29;7.30;99.90
8475;DHT22;4274;52.012;8.448;2023-11-18T10:52:02;7.40;99.90
8475;DHT22;4274;52.012;8.448;2023-11-18T10:54:32;7.50;99.90
8475;DHT22;4274;52.012;8.448;2023-11-18T10:57:01;7.80;99.90
8475;DHT22;4274;52.012;8.448;2023-11-18T10:59:32;8.00;99.90
8475;DHT22;4274;52.012;8.448;2023-11-18T11:01:58;8.10;99.90
8475;DHT22;4274;52.012;8.448;2023-11-18T11:04:24;8.00;99.90
8475;DHT22;4274;52.012;8.448;2023-11-18T11:06:50;8.00;99.90
8475;DHT22;4274;52.012;8.448;2023-11-18T11:09:19;8.10;99.90
8475;DHT22;4274;52.012;8.448;2023-11-18T11:14:21;8.10;99.90
8475;DHT22;4274;52.012;8.448;2023-11-18T11:16:54;8.10;99.90
8475;DHT22;4274;52.012;8.448;2023-11-18T11:19:33;8.10;99.90
8475;DHT22;4274;52.012;8.448;2023-11-18T11:22:07;8.30;99.90
8475;DHT22;4274;52.012;8.448;2023-11-18T11:27:34;8.20;99.90
8475;DHT22;4274;52.012;8.448;2023-11-18T11:30:28;8.20;99.90
8475;DHT22;4274;52.012;8.448;2023-11-18T11:33:13;8.10;99.90
8475;DHT22;4274;52.012;8.448;2023-11-18T11:35:43;8.00;99.90
8475;DHT22;4274;52.012;8.448;2023-11-18T11:38:15;8.00;99.90
8475;DHT22;4274;52.012;8.448;2023-11-18T11:40:42;7.90;99.90
8475;DHT22;4274;52.012;8.448;2023-11-18T11:43:09;7.80;99.90
8475;DHT22;4274;52.012;8.448;2023-11-18T11:45:37;7.80;99.90
8475;DHT22;4274;52.012;8.448;2023-11-18T11:48:06;7.70;99.90
8475;DHT22;4274;52.012;8.448;2023-11-18T11:53:44;7.60;99.90
8475;DHT22;4274;52.012;8.448;2023-11-18T11:56:11;7.50;99.90
8475;DHT22;4274;52.012;8.448;2023-11-18T11:58:46;7.40;99.90
8475;DHT22;4274;52.012;8.448;2023-11-18T12:01:27;7.40;99.90
8475;DHT22;4274;52.012;8.448;2023-11-18T12:03:57;7.30;99.90
8475;DHT22;4274;52.012;8.448;2023-11-18T12:06:27;7.30;99.90
8475;DHT22;4274;52.012;8.448;2023-11-18T12:08:53;7.20;99.90
8475;DHT22;4274;52.012;8.448;2023-11-18T12:11:20;7.20;99.90
8475;DHT22;4274;52.012;8.448;2023-11-18T12:14:07;7.20;99.90
8475;DHT22;4274;52.012;8.448;2023-11-18T12:17:08;7.20;99.90
8475;DHT22;4274;52.012;8.448;2023-11-18T12:19:35;7.10;99.90
8475;DHT22;4274;52.012;8.448;2023-11-18T12:22:20;7.10;99.90
8475;DHT22;4274;52.012;8.448;2023-11-18T12:27:43;7.10;99.90
8475;DHT22;4274;52.012;8.448;2023-11-18T12:33:01;7.00;99.90
8475;DHT22;4274;52.012;8.448;2023-11-18T12:41:07;6.90;99.90
8475;DHT22;4274;52.012;8.448;2023-11-18T12:49:16;6.80;99.90
8475;DHT22;4274;52.012;8.448;2023-11-18T12:51:45;6.80;99.90
8475;DHT22;4274;52.012;8.448;2023-11-18T12:54:11;6.80;99.90
8475;DHT22;4274;52.012;8.448;2023-11-18T12:56:38;6.80;99.90
8475;DHT22;4274;52.012;8.448;2023-11-18T12:59:05;6.80;99.90
8475;DHT22;4274;52.012;8.448;2023-11-18T13:01:33;6.80;99.90
8475;DHT22;4274;52.012;8.448;2023-11-18T13:04:02;6.80;99.90
8475;DHT22;4274;52.012;8.448;2023-11-18T13:06:28;6.70;99.90
8475;DHT22;4274;52.012;8.448;2023-11-18T13:08:54;6.70;99.90
8475;DHT22;4274;52.012;8.448;2023-11-18T13:11:22;6.70;99.90
8475;DHT22;4274;52.012;8.448;2023-11-18T13:13:51;6.60;99.90
8475;DHT22;4274;52.012;8.448;2023-11-18T13:16:17;6.60;99.90
8475;DHT22;4274;52.012;8.448;2023-11-18T13:18:47;6.60;99.90
8475;DHT22;4274;52.012;8.448;2023-11-18T13:21:19;6.60;99.90
8475;DHT22;4274;52.012;8.448;2023-11-18T13:23:49;6.50;99.90
8475;DHT22;4274;52.012;8.448;2023-11-18T13:26:15;6.50;99.90
8475;DHT22;4274;52.012;8.448;2023-11-18T13:28:42;6.50;99.90
8475;DHT22;4274;52.012;8.448;2023-11-18T13:31:09;6.50;99.90
8475;DHT22;4274;52.012;8.448;2023-11-18T13:33:41;6.40;99.90
8475;DHT22;4274;52.012;8.448;2023-11-18T13:36:07;6.40;99.90
8475;DHT22;4274;52.012;8.448;2023-11-18T13:38:38;6.30;99.90
8475;DHT22;4274;52.012;8.448;2023-11-18T13:41:05;6.30;99.90
8475;DHT22;4274;52.012;8.448;2023-11-18T13:43:43;6.30;99.90
8475;DHT22;4274;52.012;8.448;2023-11-18T13:46:13;6.20;99.90
8475;DHT22;4274;52.012;8.448;2023-11-18T13:48:39;6.20;99.90
8475;DHT22;4274;52.012;8.448;2023-11-18T13:51:10;6.20;99.90
8475;DHT22;4274;52.012;8.448;2023-11-18T13:53:39;6.20;99.90
8475;DHT22;4274;52.012;8.448;2023-11-18T13:56:07;6.10;99.90
8475;DHT22;4274;52.012;8.448;2023-11-18T13:58:34;6.00;99.90
8475;DHT22;4274;52.012;8.448;2023-11-18T14:01:00;6.00;99.90
8475;DHT22;4274;52.012;8.448;2023-11-18T14:03:26;5.90;99.90
8475;DHT22;4274;52.012;8.448;2023-11-18T14:05:51;5.80;99.90
8475;DHT22;4274;52.012;8.448;2023-11-18T14:08:18;5.80;99.90
8475;DHT22;4274;52.012;8.448;2023-11-18T14:10:45;5.80;99.90
8475;DHT22;4274;52.012;8.448;2023-11-18T14:13:14;5.70;99.90
8475;DHT22;4274;52.012;8.448;2023-11-18T14:15:42;5.60;99.90
8475;DHT22;4274;52.012;8.448;2023-11-18T14:18:10;5.60;99.90
8475;DHT22;4274;52.012;8.448;2023-11-18T14:20:36;5.50;99.90
8475;DHT22;4274;52.012;8.448;2023-11-18T14:23:02;5.50;99.90
8475;DHT22;4274;52.012;8.448;2023-11-18T14:25:31;5.40;99.90
8475;DHT22;4274;52.012;8.448;2023-11-18T14:27:58;5.30;99.90
8475;DHT22;4274;52.012;8.448;2023-11-18T14:30:23;5.30;99.90
8475;DHT22;4274;52.012;8.448;2023-11-18T14:32:52;5.20;99.90
8475;DHT22;4274;52.012;8.448;2023-11-18T14:35:18;5.20;99.90
8475;DHT22;4274;52.012;8.448;2023-11-18T14:37:44;5.20;99.90
8475;DHT22;4274;52.012;8.448;2023-11-18T14:40:14;5.10;99.90
8475;DHT22;4274;52.012;8.448;2023-11-18T14:42:46;5.10;99.90
8475;DHT22;4274;52.012;8.448;2023-11-18T14:45:16;5.10;99.90
8475;DHT22;4274;52.012;8.448;2023-11-18T14:47:43;5.00;99.90
8475;DHT22;4274;52.012;8.448;2023-11-18T14:50:14;5.00;99.90
8475;DHT22;4274;52.012;8.448;2023-11-18T14:52:46;5.00;99.90
8475;DHT22;4274;52.012;8.448;2023-11-18T14:55:14;4.90;99.90
8475;DHT22;4274;52.012;8.448;2023-11-18T14:57:43;4.90;99.90
8475;DHT22;4274;52.012;8.448;2023-11-18T15:00:10;4.90;99.90
8475;DHT22;4274;52.012;8.448;2023-11-18T15:02:48;4.90;99.90
8475;DHT22;4274;52.012;8.448;2023-11-18T15:05:18;4.80;99.90
8475;DHT22;4274;52.012;8.448;2023-11-18T15:07:47;4.80;99.90
8475;DHT22;4274;52.012;8.448;2023-11-18T15:10:24;4.80;99.90
8475;DHT22;4274;52.012;8.448;2023-11-18T15:15:23;4.70;99.90
8475;DHT22;4274;52.012;8.448;2023-11-18T15:18:06;4.70;99.90
8475;DHT22;4274;52.012;8.448;2023-11-18T15:20:39;4.70;99.90
8475;DHT22;4274;52.012;8.448;2023-11-18T15:23:11;4.70;99.90
8475;DHT22;4274;52.012;8.448;2023-11-18T15:25:37;4.60;99.90
8475;DHT22;4274;52.012;8.448;2023-11-18T15:28:04;4.60;99.90
8475;DHT22;4274;52.012;8.448;2023-11-18T15:30:37;4.60;99.90
8475;DHT22;4274;52.012;8.448;2023-11-18T15:33:03;4.70;99.90
8475;DHT22;4274;52.012;8.448;2023-11-18T15:35:29;4.70;99.90
8475;DHT22;4274;52.012;8.448;2023-11-18T15:37:55;4.70;99.90
8475;DHT22;4274;52.012;8.448;2023-11-18T15:40:20;4.70;99.90
8475;DHT22;4274;52.012;8.448;2023-11-18T15:42:50;4.70;99.90
8475;DHT22;4274;52.012;8.448;2023-11-18T15:45:21;4.70;99.90
8475;DHT22;4274;52.012;8.448;2023-11-18T15:47:49;4.70;99.90
8475;DHT22;4274;52.012;8.448;2023-11-18T15:50:15;4.70;99.90
8475;DHT22;4274;52.012;8.448;2023-11-18T15:52:46;4.70;99.90
8475;DHT22;4274;52.012;8.448;2023-11-18T15:55:13;4.70;99.90
8475;DHT22;4274;52.012;8.448;2023-11-18T15:57:40;4.70;99.90
8475;DHT22;4274;52.012;8.448;2023-11-18T16:00:06;4.70;99.90
8475;DHT22;4274;52.012;8.448;2023-11-18T16:02:49;4.70;99.90
8475;DHT22;4274;52.012;8.448;2023-11-18T16:05:16;4.70;99.90
8475;DHT22;4274;52.012;8.448;2023-11-18T16:07:45;4.70;99.90
8475;DHT22;4274;52.012;8.448;2023-11-18T16:10:12;4.70;99.90
8475;DHT22;4274;52.012;8.448;2023-11-18T16:12:54;4.70;99.90
8475;DHT22;4274;52.012;8.448;2023-11-18T16:15:21;4.70;99.90
8475;DHT22;4274;52.012;8.448;2023-11-18T16:17:48;4.70;99.90
8475;DHT22;4274;52.012;8.448;2023-11-18T16:20:18;4.70;99.90
8475;DHT22;4274;52.012;8.448;2023-11-18T16:22:45;4.60;99.90
8475;DHT22;4274;52.012;8.448;2023-11-18T16:25:13;4.70;99.90
8475;DHT22;4274;52.012;8.448;2023-11-18T16:27:46;4.70;99.90
8475;DHT22;4274;52.012;8.448;2023-11-18T16:30:13;4.70;99.90
8475;DHT22;4274;52.012;8.448;2023-11-18T16:32:39;4.70;99.90
8475;DHT22;4274;52.012;8.448;2023-11-18T16:35:05;4.70;99.90
8475;DHT22;4274;52.012;8.448;2023-11-18T16:37:37;4.60;99.90
8475;DHT22;4274;52.012;8.448;2023-11-18T16:40:03;4.60;99.90
8475;DHT22;4274;52.012;8.448;2023-11-18T16:42:30;4.60;99.90
8475;DHT22;4274;52.012;8.448;2023-11-18T16:44:55;4.60;99.90
8475;DHT22;4274;52.012;8.448;2023-11-18T16:47:22;4.60;99.90
8475;DHT22;4274;52.012;8.448;2023-11-18T16:49:48;4.60;99.90
8475;DHT22;4274;52.012;8.448;2023-11-18T16:52:14;4.60;99.90
8475;DHT22;4274;52.012;8.448;2023-11-18T16:54:41;4.60;99.90
8475;DHT22;4274;52.012;8.448;2023-11-18T16:57:06;4.60;99.90